createdAt,value
2022-12-19T00:01:32.449Z,24.20
2022-12-19T00:04:07.520Z,24.10
2022-12-19T00:06:39.515Z,23.40
2022-12-19T00:09:13.033Z,22.50
2022-12-19T00:11:42.315Z,24.10
2022-12-19T00:14:11.858Z,22.50
2022-12-19T00:16:40.400Z,24.40
2022-12-19T00:19:10.871Z,24.20
2022-12-19T00:21:39.839Z,23.90
2022-12-19T00:24:20.597Z,23.20
2022-12-19T00:26:50.397Z,23.40
2022-12-19T00:29:19.110Z,22.60
2022-12-19T00:31:47.630Z,23.40
2022-12-19T00:34:16.443Z,25.00
2022-12-19T00:36:45.018Z,23.30
2022-12-19T00:39:13.555Z,22.90
2022-12-19T00:41:42.647Z,23.40
2022-12-19T00:44:17.237Z,22.40
2022-12-19T00:46:47.412Z,23.10
2022-12-19T00:49:21.884Z,25.80
2022-12-19T00:51:50.564Z,22.70
2022-12-19T00:54:19.088Z,26.20
2022-12-19T00:56:48.197Z,24.00
2022-12-19T00:59:20.085Z,23.60
2022-12-19T01:17:07.463Z,22.40
2022-12-19T01:19:41.921Z,24.00
2022-12-19T01:22:13.687Z,24.90
2022-12-19T01:24:42.472Z,23.50
2022-12-19T01:27:11.369Z,22.50
2022-12-19T01:29:52.441Z,25.50
2022-12-19T01:32:23.402Z,24.00
2022-12-19T01:34:53.100Z,24.40
2022-12-19T01:37:21.478Z,24.20
2022-12-19T01:39:49.763Z,23.00
2022-12-19T01:42:23.623Z,22.90
2022-12-19T01:45:19.340Z,23.70
2022-12-19T01:47:53.682Z,23.00
2022-12-19T01:51:02.921Z,23.10
2022-12-19T01:53:48.298Z,22.40
2022-12-19T01:56:24.876Z,23.40
2022-12-19T01:59:05.712Z,23.10
2022-12-19T02:01:40.904Z,23.60
2022-12-19T02:04:29.417Z,23.30
2022-12-19T02:07:15.595Z,22.20
2022-12-19T02:09:46.913Z,22.50
2022-12-19T02:12:15.573Z,24.10
2022-12-19T02:14:44.043Z,25.00
2022-12-19T02:17:34.337Z,23.70
2022-12-19T02:20:30.186Z,23.70
2022-12-19T02:23:05.048Z,23.70
2022-12-19T02:25:50.056Z,24.80
2022-12-19T02:28:32.945Z,24.20
2022-12-19T02:31:30.813Z,25.80
2022-12-19T02:34:15.674Z,24.30
2022-12-19T02:37:20.909Z,22.20
2022-12-19T02:40:14.965Z,25.30
2022-12-19T02:42:46.671Z,24.70
2022-12-19T02:45:24.713Z,25.00
2022-12-19T02:48:04.479Z,25.40
2022-12-19T02:50:39.102Z,24.90
2022-12-19T02:53:09.484Z,24.90
2022-12-19T02:56:00.137Z,24.10
2022-12-19T02:58:57.017Z,24.80
2022-12-19T03:02:18.896Z,25.80
2022-12-19T03:05:16.817Z,23.70
2022-12-19T03:08:06.478Z,24.40
2022-12-19T03:10:47.301Z,23.70
2022-12-19T03:13:21.661Z,22.20
2022-12-19T03:15:51.363Z,25.00
2022-12-19T03:18:20.230Z,23.30
2022-12-19T03:21:11.007Z,22.60
2022-12-19T03:23:40.896Z,25.80
2022-12-19T03:26:19.926Z,24.90
2022-12-19T03:28:52.766Z,23.50
2022-12-19T03:31:25.427Z,24.70
2022-12-19T03:34:03.303Z,24.60
2022-12-19T03:36:38.986Z,22.80
2022-12-19T03:39:10.222Z,21.60
2022-12-19T03:41:59.602Z,24.60
2022-12-19T03:44:33.655Z,25.00
2022-12-19T03:47:11.850Z,24.80
2022-12-19T03:49:40.663Z,23.10
2022-12-19T03:52:25.368Z,24.50
2022-12-19T03:55:18.243Z,24.20
2022-12-19T03:57:59.356Z,22.90
2022-12-19T04:00:29.972Z,26.80
2022-12-19T04:02:59.718Z,23.30
2022-12-19T04:05:29.118Z,22.50
2022-12-19T04:08:04.423Z,23.60
2022-12-19T04:10:38.572Z,24.40
2022-12-19T04:13:13.216Z,24.60
2022-12-19T04:16:01.442Z,22.20
2022-12-19T04:18:31.582Z,24.10
2022-12-19T04:21:13.203Z,23.30
2022-12-19T04:23:47.995Z,21.50
2022-12-19T04:26:18.848Z,22.90
2022-12-19T04:28:52.349Z,22.80
2022-12-19T04:31:22.176Z,22.60
2022-12-19T04:33:50.520Z,20.80
2022-12-19T04:36:19.022Z,21.20
2022-12-19T04:38:47.799Z,22.00
2022-12-19T04:41:16.061Z,20.60
2022-12-19T04:43:44.506Z,19.70
2022-12-19T04:46:13.182Z,20.20
2022-12-19T04:48:41.509Z,19.30
2022-12-19T04:51:10.193Z,21.20
2022-12-19T04:53:38.561Z,21.00
2022-12-19T04:56:07.672Z,20.10
2022-12-19T04:58:36.192Z,18.60
2022-12-19T05:01:06.845Z,19.70
2022-12-19T05:03:36.610Z,18.50
2022-12-19T05:06:05.280Z,19.50
2022-12-19T05:08:34.996Z,18.70
2022-12-19T05:11:05.175Z,17.60
2022-12-19T05:13:34.011Z,19.50
2022-12-19T05:16:05.598Z,18.40
2022-12-19T05:18:34.477Z,16.70
2022-12-19T05:21:03.344Z,17.50
2022-12-19T05:23:32.215Z,17.50
2022-12-19T05:26:02.040Z,19.00
2022-12-19T05:28:30.970Z,18.70
2022-12-19T05:31:08.847Z,18.40
2022-12-19T05:33:38.454Z,20.10
2022-12-19T05:36:08.555Z,13.40
2022-12-19T05:38:37.494Z,17.50
2022-12-19T05:41:17.953Z,15.50
2022-12-19T05:43:50.344Z,18.50
2022-12-19T05:46:19.434Z,19.30
2022-12-19T05:48:48.310Z,18.50
2022-12-19T05:51:16.995Z,16.60
2022-12-19T05:53:45.369Z,19.80
2022-12-19T05:56:17.093Z,17.60
2022-12-19T05:58:46.635Z,18.30
2022-12-19T06:01:18.986Z,20.00
2022-12-19T06:03:48.543Z,17.80
2022-12-19T06:06:20.208Z,17.30
2022-12-19T06:08:48.612Z,15.50
2022-12-19T06:11:16.960Z,16.90
2022-12-19T06:13:45.219Z,18.50
2022-12-19T06:16:15.781Z,17.80
2022-12-19T06:18:45.843Z,18.90
2022-12-19T06:21:20.500Z,19.00
2022-12-19T06:23:49.215Z,20.30
2022-12-19T06:26:22.694Z,18.70
2022-12-19T06:28:53.330Z,19.50
2022-12-19T06:31:23.608Z,18.00
2022-12-19T06:33:54.998Z,19.10
2022-12-19T06:36:26.252Z,20.00
2022-12-19T06:38:58.113Z,19.20
2022-12-19T06:41:46.539Z,19.90
2022-12-19T06:44:16.809Z,21.90
2022-12-19T06:46:45.372Z,18.80
2022-12-19T06:49:13.746Z,21.20
2022-12-19T06:51:42.876Z,19.90
2022-12-19T06:54:12.567Z,18.80
2022-12-19T06:56:42.902Z,17.20
2022-12-19T06:59:14.420Z,21.60
2022-12-19T07:02:02.918Z,18.10
2022-12-19T07:04:40.473Z,20.10
2022-12-19T07:07:09.064Z,19.10
2022-12-19T07:09:37.699Z,15.60
2022-12-19T07:12:06.212Z,17.70
2022-12-19T07:14:34.632Z,18.80
2022-12-19T07:17:04.021Z,20.00
2022-12-19T07:19:33.467Z,20.70
2022-12-19T07:22:03.733Z,19.40
2022-12-19T07:24:32.967Z,17.80
2022-12-19T07:27:01.332Z,18.20
2022-12-19T07:29:29.719Z,19.80
2022-12-19T07:31:58.136Z,19.70
2022-12-19T07:34:26.556Z,18.00
2022-12-19T07:36:55.117Z,19.30
2022-12-19T07:39:23.446Z,18.20
2022-12-19T07:41:51.793Z,19.60
2022-12-19T07:44:28.428Z,18.80
2022-12-19T07:46:56.807Z,19.40
2022-12-19T07:49:25.096Z,17.70
2022-12-19T07:51:53.667Z,18.10
2022-12-19T07:54:22.056Z,18.40
2022-12-19T07:56:51.109Z,17.30
2022-12-19T07:59:21.388Z,17.80
2022-12-19T08:01:52.917Z,18.40
2022-12-19T08:04:21.432Z,18.20
2022-12-19T08:06:49.772Z,16.20
2022-12-19T08:09:18.345Z,16.00
2022-12-19T08:11:46.925Z,17.30
2022-12-19T08:14:15.290Z,16.80
2022-12-19T08:17:11.390Z,17.30
2022-12-19T08:19:31.956Z,10.90
2022-12-19T08:22:00.293Z,17.30
2022-12-19T08:24:28.611Z,15.60
2022-12-19T08:26:57.451Z,15.00
2022-12-19T08:29:25.791Z,15.20
2022-12-19T08:31:54.360Z,16.60
2022-12-19T08:34:22.569Z,16.60
2022-12-19T08:36:50.950Z,16.40
2022-12-19T08:39:19.259Z,17.60
2022-12-19T08:41:47.774Z,16.90
2022-12-19T08:44:16.604Z,16.50
2022-12-19T08:46:50.043Z,17.60
2022-12-19T08:49:19.706Z,16.60
2022-12-19T08:51:48.031Z,15.20
2022-12-19T08:54:16.442Z,16.00
2022-12-19T08:56:46.253Z,16.10
2022-12-19T08:59:30.563Z,16.60
2022-12-19T09:02:02.236Z,15.30
2022-12-19T09:06:00.542Z,17.60
2022-12-19T09:07:19.470Z,14.10
2022-12-19T09:09:47.775Z,12.70
2022-12-19T09:12:16.925Z,14.30
2022-12-19T09:14:45.515Z,13.90
2022-12-19T09:17:14.052Z,16.30
2022-12-19T09:19:45.557Z,17.10
2022-12-19T09:22:16.963Z,16.00
2022-12-19T09:24:45.822Z,16.30
2022-12-19T09:27:14.740Z,17.70
2022-12-19T09:29:44.111Z,18.10
2022-12-19T09:32:12.637Z,17.20
2022-12-19T09:34:40.986Z,16.60
2022-12-19T09:37:16.939Z,17.00
2022-12-19T09:39:47.568Z,17.50
2022-12-19T09:42:48.539Z,15.90
2022-12-19T09:45:37.561Z,16.70
2022-12-19T09:48:23.909Z,16.00
2022-12-19T09:51:09.560Z,17.90
2022-12-19T09:53:38.411Z,17.10
2022-12-19T09:56:14.799Z,14.30
2022-12-19T09:59:28.492Z,17.30
2022-12-19T10:02:39.149Z,17.00
2022-12-19T10:05:52.319Z,15.90
2022-12-19T10:08:45.359Z,14.40
2022-12-19T10:12:39.583Z,18.60
2022-12-19T10:14:48.997Z,18.90
2022-12-19T10:17:41.950Z,17.70
2022-12-19T10:20:49.857Z,17.30
2022-12-19T10:23:50.412Z,16.80
2022-12-19T10:26:21.534Z,16.50
2022-12-19T10:29:13.515Z,16.30
2022-12-19T10:32:17.805Z,17.00
2022-12-19T10:34:48.237Z,16.70
2022-12-19T10:37:31.435Z,17.90
2022-12-19T10:40:34.901Z,16.30
2022-12-19T10:43:18.230Z,17.50
2022-12-19T10:45:58.570Z,16.90
2022-12-19T10:48:30.734Z,16.80
2022-12-19T10:51:06.484Z,16.90
2022-12-19T10:53:35.578Z,16.40
2022-12-19T10:56:23.270Z,17.50
2022-12-19T10:58:57.556Z,17.30
2022-12-19T11:04:34.862Z,17.60
2022-12-19T11:07:03.936Z,18.80
2022-12-19T11:09:45.998Z,16.50
2022-12-19T11:16:15.360Z,17.10
2022-12-19T11:20:51.999Z,18.30
2022-12-19T11:29:14.654Z,16.30
2022-12-19T11:29:37.271Z,18.10
2022-12-19T11:30:37.380Z,17.10
2022-12-19T11:32:44.480Z,18.50
2022-12-19T11:35:24.826Z,16.00
2022-12-19T11:37:58.345Z,17.50
2022-12-19T11:40:49.856Z,17.90
2022-12-19T11:43:46.914Z,15.80
2022-12-19T11:46:45.108Z,16.10
2022-12-19T11:49:38.855Z,16.90
2022-12-19T11:52:29.626Z,17.60
2022-12-19T11:55:08.254Z,17.60
2022-12-19T11:57:39.039Z,17.60
2022-12-19T12:00:13.227Z,17.70
2022-12-19T12:03:12.620Z,17.80
2022-12-19T12:05:48.539Z,17.00
2022-12-19T12:12:00.383Z,16.90
2022-12-19T12:27:11.796Z,17.90
2022-12-19T12:31:00.177Z,18.30
2022-12-19T12:31:26.999Z,14.80
2022-12-19T12:31:50.450Z,19.20
2022-12-19T12:32:02.520Z,18.00
2022-12-19T12:32:03.003Z,18.40
2022-12-19T12:35:52.125Z,16.90
2022-12-19T12:39:36.678Z,16.90
2022-12-19T12:42:20.198Z,17.80
2022-12-19T12:44:52.914Z,19.20
2022-12-19T12:47:26.272Z,19.00
2022-12-19T12:50:00.882Z,19.10
2022-12-19T12:52:40.609Z,19.20
2022-12-19T12:55:40.342Z,18.50
2022-12-19T12:58:46.500Z,18.70
2022-12-19T13:01:30.423Z,19.90
2022-12-19T13:04:10.999Z,17.40
2022-12-19T13:06:52.077Z,17.70
2022-12-19T13:09:20.567Z,19.90
2022-12-19T13:12:13.033Z,17.50
2022-12-19T13:14:44.690Z,19.80
2022-12-19T13:17:20.661Z,20.40
2022-12-19T13:20:05.603Z,19.60
2022-12-19T13:22:33.900Z,18.30
2022-12-19T13:25:02.255Z,18.80
2022-12-19T13:27:37.435Z,21.40
2022-12-19T13:30:14.973Z,21.20
2022-12-19T13:32:43.604Z,19.50
2022-12-19T13:37:07.553Z,19.50
2022-12-19T13:39:57.818Z,20.60
2022-12-19T13:41:48.598Z,17.90
2022-12-19T13:44:22.447Z,16.50
2022-12-19T13:46:51.073Z,21.00
2022-12-19T13:49:30.536Z,21.40
2022-12-19T13:52:04.857Z,20.10
2022-12-19T13:54:51.917Z,19.60
2022-12-19T13:57:30.793Z,18.10
2022-12-19T14:00:06.708Z,22.20
2022-12-19T14:02:46.358Z,20.80
2022-12-19T14:06:15.171Z,21.20
2022-12-19T14:08:25.092Z,20.60
2022-12-19T14:11:38.340Z,20.20
2022-12-19T14:14:17.441Z,19.70
2022-12-19T14:16:47.819Z,21.70
2022-12-19T14:19:25.144Z,20.40
2022-12-19T14:22:04.563Z,21.60
2022-12-19T14:24:41.706Z,20.20
2022-12-19T14:28:18.229Z,19.50
2022-12-19T14:30:27.920Z,21.00
2022-12-19T14:33:46.640Z,20.10
2022-12-19T14:36:06.506Z,22.00
2022-12-19T14:39:22.536Z,20.10
2022-12-19T14:42:02.493Z,21.10
2022-12-19T14:52:08.397Z,21.40
2022-12-19T14:54:03.494Z,20.50
2022-12-19T14:54:30.696Z,22.00
2022-12-19T14:54:40.482Z,21.60
2022-12-19T14:59:42.345Z,23.10
2022-12-19T15:26:28.915Z,21.00
2022-12-19T15:28:58.337Z,23.00
2022-12-19T15:31:40.440Z,20.80
2022-12-19T15:34:48.293Z,20.80
2022-12-19T15:37:15.002Z,23.60
2022-12-19T15:39:44.670Z,23.60
2022-12-19T15:42:23.047Z,24.80
2022-12-19T15:44:53.868Z,23.00
2022-12-19T15:47:30.001Z,26.70
2022-12-19T15:50:02.659Z,23.70
2022-12-19T15:52:30.997Z,24.70
2022-12-19T15:54:59.257Z,23.70
2022-12-19T15:57:36.438Z,23.40
2022-12-19T16:00:17.167Z,22.80
2022-12-19T16:05:36.203Z,23.50
2022-12-19T16:08:12.176Z,23.30
2022-12-19T16:10:41.912Z,24.40
2022-12-19T16:13:24.394Z,24.10
2022-12-19T16:15:55.096Z,22.50
2022-12-19T16:18:23.735Z,23.70
2022-12-19T16:20:52.389Z,23.40
2022-12-19T16:23:22.439Z,25.40
2022-12-19T16:25:52.082Z,23.10
2022-12-19T16:28:23.917Z,24.60
2022-12-19T16:30:52.785Z,23.70
2022-12-19T16:33:24.048Z,23.00
2022-12-19T16:36:04.077Z,24.30
2022-12-19T16:38:33.645Z,24.50
2022-12-19T16:41:02.793Z,24.70
2022-12-19T16:43:40.939Z,23.50
2022-12-19T16:46:17.693Z,23.10
2022-12-19T16:48:50.010Z,24.30
2022-12-19T16:51:24.822Z,21.30
2022-12-19T16:53:57.679Z,23.30
2022-12-19T16:58:56.495Z,24.70
2022-12-19T17:01:24.881Z,25.10
2022-12-19T17:03:54.522Z,24.10
2022-12-19T17:06:23.946Z,23.10
2022-12-19T17:08:54.033Z,23.10
2022-12-19T17:11:24.908Z,25.90
2022-12-19T17:14:00.608Z,26.30
2022-12-19T17:16:31.185Z,25.70
2022-12-19T17:18:59.984Z,26.30
2022-12-19T17:21:28.523Z,27.10
2022-12-19T17:23:56.988Z,27.00
2022-12-19T17:26:25.336Z,26.10
2022-12-19T17:28:53.660Z,25.30
2022-12-19T17:31:26.450Z,25.50
2022-12-19T17:33:57.937Z,26.50
2022-12-19T17:36:36.757Z,27.00
2022-12-19T17:39:23.169Z,26.50
2022-12-19T17:41:52.980Z,28.60
2022-12-19T17:44:21.339Z,25.00
2022-12-19T17:46:49.937Z,26.20
2022-12-19T17:49:27.120Z,26.80
2022-12-19T17:51:56.249Z,27.70
2022-12-19T17:54:25.744Z,28.00
2022-12-19T17:56:54.098Z,27.20
2022-12-19T17:59:22.449Z,23.70
2022-12-19T18:01:51.084Z,26.00
2022-12-19T18:04:21.790Z,24.80
2022-12-19T18:06:50.801Z,27.60
2022-12-19T18:09:25.353Z,26.20
2022-12-19T18:11:53.722Z,25.90
2022-12-19T18:14:22.063Z,25.80
2022-12-19T18:16:50.951Z,25.90
2022-12-19T18:19:21.851Z,27.40
2022-12-19T18:21:50.585Z,26.20
2022-12-19T18:24:18.924Z,24.80
2022-12-19T18:26:47.262Z,27.10
2022-12-19T18:29:16.429Z,28.00
2022-12-19T18:31:50.577Z,27.40
2022-12-19T18:34:23.239Z,27.10
2022-12-19T18:36:52.610Z,25.70
2022-12-19T18:39:24.945Z,26.30
2022-12-19T18:44:23.221Z,27.20
2022-12-19T18:46:53.008Z,26.80
2022-12-19T18:49:22.997Z,28.10
2022-12-19T18:51:51.455Z,25.30
2022-12-19T18:54:22.326Z,27.40
2022-12-19T18:56:51.948Z,26.50
2022-12-19T18:59:20.591Z,27.40
2022-12-19T19:01:49.133Z,26.90
2022-12-19T19:04:18.339Z,26.50
2022-12-19T19:06:51.413Z,26.10
2022-12-19T19:09:21.658Z,28.00
2022-12-19T19:12:02.447Z,26.60
2022-12-19T19:14:30.905Z,25.90
2022-12-19T19:16:59.245Z,26.90
2022-12-19T19:19:27.706Z,26.90
2022-12-19T19:21:56.198Z,29.10
2022-12-19T19:24:24.585Z,28.30
2022-12-19T19:26:53.052Z,27.50
2022-12-19T19:29:21.826Z,25.50
2022-12-19T19:31:51.993Z,28.00
2022-12-19T19:34:31.720Z,28.20
2022-12-19T19:37:03.722Z,26.50
2022-12-19T19:39:34.194Z,28.20
2022-12-19T19:42:02.964Z,26.80
2022-12-19T19:44:32.550Z,26.90
2022-12-19T19:47:01.015Z,27.10
2022-12-19T19:49:29.416Z,27.00
2022-12-19T19:52:02.564Z,28.80
2022-12-19T19:54:32.336Z,28.30
2022-12-19T19:57:00.775Z,29.90
2022-12-19T19:59:31.434Z,29.60
2022-12-19T20:02:00.484Z,27.00
2022-12-19T20:04:29.313Z,29.60
2022-12-19T20:06:57.623Z,27.40
2022-12-19T20:09:26.187Z,26.60
2022-12-19T20:11:56.572Z,27.00
2022-12-19T20:14:26.988Z,28.00
2022-12-19T20:16:55.435Z,27.50
2022-12-19T20:19:23.744Z,25.50
2022-12-19T20:21:52.478Z,27.10
2022-12-19T20:24:20.955Z,28.80
2022-12-19T20:26:49.417Z,28.10
2022-12-19T20:29:17.809Z,27.90
2022-12-19T20:31:46.329Z,30.00
2022-12-19T20:34:14.799Z,30.20
2022-12-19T20:36:43.083Z,27.30
2022-12-19T20:39:12.574Z,27.00
2022-12-19T20:41:40.956Z,28.40
2022-12-19T20:44:09.453Z,28.10
2022-12-19T20:46:38.140Z,29.30
2022-12-19T20:49:06.565Z,29.00
2022-12-19T20:51:34.904Z,24.40
2022-12-19T20:54:04.876Z,26.00
2022-12-19T20:56:33.239Z,28.60
2022-12-19T20:59:01.790Z,28.40
2022-12-19T21:01:31.671Z,27.70
2022-12-19T21:04:00.296Z,27.30
2022-12-19T21:06:29.051Z,26.50
2022-12-19T21:08:58.015Z,28.50
2022-12-19T21:11:27.863Z,26.60
2022-12-19T21:13:56.146Z,26.60
2022-12-19T21:16:24.851Z,28.80
2022-12-19T21:18:53.339Z,28.60
2022-12-19T21:21:26.129Z,28.20
2022-12-19T21:23:55.260Z,27.90
2022-12-19T21:26:26.029Z,27.40
2022-12-19T21:28:58.083Z,27.90
2022-12-19T21:31:30.030Z,27.80
2022-12-19T21:34:00.564Z,26.40
2022-12-19T21:36:30.797Z,25.90
2022-12-19T21:39:02.237Z,26.30
2022-12-19T21:41:31.566Z,25.10
2022-12-19T21:44:00.707Z,23.30
2022-12-19T21:46:33.212Z,23.30
2022-12-19T21:49:03.317Z,24.00
2022-12-19T21:51:32.500Z,22.80
2022-12-19T21:54:03.690Z,22.60
2022-12-19T21:56:35.009Z,22.00
2022-12-19T21:59:06.997Z,22.50
2022-12-19T22:01:36.043Z,20.90
2022-12-19T22:04:07.886Z,21.70
2022-12-19T22:06:38.024Z,18.10
2022-12-19T22:09:09.180Z,17.30
2022-12-19T22:11:38.043Z,19.70
2022-12-19T22:14:07.314Z,16.90
2022-12-19T22:16:36.326Z,19.20
2022-12-19T22:19:05.284Z,18.90
2022-12-19T22:21:34.037Z,17.80
2022-12-19T22:24:03.774Z,16.40
2022-12-19T22:26:33.170Z,15.90
2022-12-19T22:29:01.517Z,15.40
2022-12-19T22:31:31.918Z,14.90
2022-12-19T22:34:12.750Z,15.30
2022-12-19T22:36:42.935Z,14.80
2022-12-19T22:39:14.416Z,13.60
2022-12-19T22:41:43.267Z,12.60
2022-12-19T22:44:23.699Z,13.10
2022-12-19T22:46:52.716Z,13.10
2022-12-19T22:49:21.317Z,12.70
2022-12-19T22:51:50.214Z,11.20
2022-12-19T22:54:18.633Z,10.90
2022-12-19T22:56:50.761Z,10.70
2022-12-19T23:01:48.092Z,11.40
2022-12-19T23:04:17.616Z,10.30
2022-12-19T23:06:46.477Z,11.00
2022-12-19T23:09:16.994Z,11.30
2022-12-19T23:11:48.809Z,10.70
2022-12-19T23:14:19.176Z,10.30
2022-12-19T23:16:48.469Z,9.60
2022-12-19T23:19:17.642Z,10.60
2022-12-19T23:21:46.234Z,10.50
2022-12-19T23:24:15.242Z,9.10
2022-12-19T23:26:43.723Z,10.00
2022-12-19T23:29:15.007Z,8.30
2022-12-19T23:31:45.377Z,8.60
2022-12-19T23:34:15.496Z,9.60
2022-12-19T23:39:33.346Z,8.50
2022-12-19T23:42:01.672Z,8.10
2022-12-19T23:44:30.274Z,8.60
2022-12-19T23:47:02.912Z,8.70
2022-12-19T23:49:33.822Z,7.40
2022-12-19T23:52:02.569Z,7.30
2022-12-19T23:54:31.391Z,7.60
2022-12-19T23:56:59.688Z,6.70
2022-12-19T23:59:28.075Z,6.60
